Time;durP1;ratioP1;P1;durP2;ratioP2;P2;SDS_P1;SDS_P2;PMS_P1;PMS_P2;Temp;Humidity;BMP_temperature;BMP_pressure;BME280_temperature;BME280_humidity;BME280_pressure;Samples;Min_cycle;Max_cycle;Signal;HPM_P1;HPM_P2
2022/10/21 00:01:49;;;;;;;7.47;6.67;;;;;;;8.48;100.00;96354.34;5011126;28;20541;-78
2022/10/21 00:04:16;;;;;;;7.80;7.00;;;;;;;8.34;100.00;96323.97;4997305;28;20463;-77
2022/10/21 00:06:42;;;;;;;9.03;7.30;;;;;;;8.38;100.00;96354.66;5025292;28;20523;-78
2022/10/21 00:09:09;;;;;;;8.27;7.37;;;;;;;8.47;100.00;96344.91;5014949;28;20466;-78
2022/10/21 00:11:36;;;;;;;7.93;7.20;;;;;;;8.32;100.00;96339.31;5044762;28;20424;-77
2022/10/21 00:14:03;;;;;;;7.20;6.60;;;;;;;8.15;100.00;96322.44;5007453;28;20440;-77
2022/10/21 00:16:29;;;;;;;11.77;7.90;;;;;;;8.03;100.00;96298.56;5016768;28;20987;-76
2022/10/21 00:18:56;;;;;;;10.47;7.67;;;;;;;7.80;100.00;96276.09;5029760;28;20463;-76
2022/10/21 00:21:22;;;;;;;9.80;7.70;;;;;;;8.15;100.00;96322.44;5018933;28;20542;-77
2022/10/21 00:23:49;;;;;;;8.80;7.30;;;;;;;8.24;100.00;96331.09;5020118;28;20440;-77
2022/10/21 00:26:17;;;;;;;8.70;7.03;;;;;;;7.92;100.00;96286.78;5020087;28;20538;-77
2022/10/21 00:28:43;;;;;;;10.30;6.57;;;;;;;7.53;100.00;96229.81;5020093;28;20512;-77
2022/10/21 00:31:12;;;;;;;10.97;8.13;;;;;;;8.05;100.00;96319.31;5021166;28;20459;-77
2022/10/21 00:33:39;;;;;;;9.83;8.37;;;;;;;8.32;100.00;96339.31;5021935;28;20432;-77
2022/10/21 00:36:07;;;;;;;7.67;6.80;;;;;;;8.12;100.00;96301.97;5021849;28;20522;-77
2022/10/21 00:38:34;;;;;;;9.20;8.10;;;;;;;8.22;100.00;96299.00;5020223;28;20466;-77
2022/10/21 00:41:01;;;;;;;9.70;8.70;;;;;;;8.15;100.00;96282.94;5020063;28;20494;-77
2022/10/21 00:43:28;;;;;;;9.20;8.17;;;;;;;7.69;100.00;96229.03;5018866;28;20463;-77
2022/10/21 00:46:02;;;;;;;7.83;7.10;;;;;;;8.10;100.00;96288.34;5019431;28;20514;-77
2022/10/21 00:48:40;;;;;;;10.10;7.93;;;;;;;8.08;100.00;96279.19;5019637;28;20702;-77
2022/10/21 00:51:15;;;;;;;8.10;7.30;;;;;;;8.22;100.00;96290.34;5017040;28;21014;-77
2022/10/21 00:53:46;;;;;;;8.50;7.30;;;;;;;7.78;100.00;96233.53;5016819;28;20446;-77
2022/10/21 00:56:17;;;;;;;10.13;8.07;;;;;;;8.03;100.00;96274.09;5018681;28;20424;-77
2022/10/21 00:58:46;;;;;;;11.87;7.83;;;;;;;7.44;100.00;96185.06;5016887;28;20535;-77
2022/10/21 01:01:14;;;;;;;9.90;8.27;;;;;;;8.13;100.00;96281.66;5000996;28;20491;-78
2022/10/21 01:03:47;;;;;;;10.73;8.70;;;;;;;8.01;100.00;96258.59;5002708;28;20440;-77
2022/10/21 01:06:17;;;;;;;7.40;6.70;;;;;;;8.14;100.00;96275.31;5018849;28;20474;-77
2022/10/21 01:08:44;;;;;;;9.50;7.67;;;;;;;7.89;100.00;96232.91;5020607;28;20451;-78
2022/10/21 01:11:16;;;;;;;11.30;8.37;;;;;;;7.90;100.00;96252.88;5019751;28;20467;-77
2022/10/21 01:13:52;;;;;;;10.57;9.00;;;;;;;7.89;100.00;96248.72;5018226;28;20523;-78
2022/10/21 01:16:35;;;;;;;10.90;9.80;;;;;;;7.76;100.00;96219.91;5022842;28;20434;-78
2022/10/21 01:19:27;;;;;;;9.33;8.40;;;;;;;7.80;100.00;96226.88;5012500;28;20447;-78
2022/10/21 01:22:31;;;;;;;10.30;8.73;;;;;;;7.09;100.00;96131.72;5025701;28;20420;-78
2022/10/21 01:25:26;;;;;;;12.07;8.57;;;;;;;7.68;100.00;96218.81;5027277;28;20497;-78
2022/10/21 01:27:59;;;;;;;9.93;8.37;;;;;;;7.77;100.00;96222.25;5008492;28;20524;-78
2022/10/21 01:30:43;;;;;;;10.33;9.30;;;;;;;7.72;100.00;96214.47;5008171;28;20495;-79
2022/10/21 01:33:40;;;;;;;10.00;7.90;;;;;;;7.88;100.00;96218.22;5025763;28;20491;-78
2022/10/21 01:36:19;;;;;;;9.00;8.10;;;;;;;7.80;100.00;96212.94;5025843;28;20438;-78
2022/10/21 01:39:18;;;;;;;10.20;8.70;;;;;;;7.62;100.00;96191.91;5025324;28;20463;-78
2022/10/21 01:41:53;;;;;;;9.80;7.90;;;;;;;7.37;100.00;96154.00;5007003;28;20523;-78
2022/10/21 01:44:26;;;;;;;10.53;9.50;;;;;;;7.39;100.00;96166.81;5021749;28;20426;-78
2022/10/21 01:46:58;;;;;;;12.00;8.70;;;;;;;7.30;100.00;96164.19;5024762;28;20448;-78
2022/10/21 01:49:24;;;;;;;10.87;8.50;;;;;;;7.32;100.00;96151.50;5025217;28;20475;-78
2022/10/21 01:51:53;;;;;;;9.67;8.60;;;;;;;7.33;100.00;96147.00;5025436;28;20441;-78
2022/10/21 01:54:25;;;;;;;11.17;9.30;;;;;;;7.29;100.00;96151.34;5009356;28;20439;-78
2022/10/21 01:56:53;;;;;;;9.87;8.87;;;;;;;7.09;100.00;96147.47;5026935;28;20427;-78
2022/10/21 01:59:23;;;;;;;9.97;8.70;;;;;;;6.71;100.00;96078.94;5030466;28;20467;-78
2022/10/21 02:01:51;;;;;;;9.33;8.40;;;;;;;7.44;100.00;96158.78;5027260;28;20462;-78
2022/10/21 02:04:19;;;;;;;14.10;9.63;;;;;;;7.30;100.00;96148.41;5024135;28;20432;-78
2022/10/21 02:06:45;;;;;;;22.07;13.30;;;;;;;7.45;100.00;96160.31;5028886;28;20441;-78
2022/10/21 02:09:12;;;;;;;16.90;12.87;;;;;;;7.31;100.00;96128.13;5023072;28;20447;-77
2022/10/21 02:11:42;;;;;;;11.80;10.70;;;;;;;7.21;100.00;96117.94;5021219;28;20442;-77
2022/10/21 02:14:17;;;;;;;10.50;9.40;;;;;;;7.45;100.00;96154.28;5023586;28;20458;-79
2022/10/21 02:16:45;;;;;;;10.57;9.57;;;;;;;7.27;100.00;96129.84;5026716;28;20430;-78
2022/10/21 02:19:17;;;;;;;8.10;6.90;;;;;;;7.63;100.00;96182.16;5026480;28;20435;-78
2022/10/21 02:21:46;;;;;;;10.57;9.47;;;;;;;7.60;100.00;96183.53;5027348;28;20497;-78
2022/10/21 02:24:24;;;;;;;14.07;9.07;;;;;;;7.52;100.00;96175.66;5040644;28;20462;-77
2022/10/21 02:26:50;;;;;;;8.80;8.00;;;;;;;6.95;100.00;96089.78;5024051;28;20950;-77
2022/10/21 02:29:25;;;;;;;10.40;8.90;;;;;;;6.94;100.00;96092.72;5023330;28;20451;-77
2022/10/21 02:32:33;;;;;;;8.60;7.80;;;;;;;7.18;100.00;96132.47;5023433;28;20446;-77
2022/10/21 02:35:35;;;;;;;10.70;9.17;;;;;;;7.27;100.00;96148.25;5022361;28;20459;-77
2022/10/21 02:38:39;;;;;;;10.23;9.23;;;;;;;7.29;100.00;96153.97;4998634;28;20453;-77
2022/10/21 02:41:09;;;;;;;12.30;9.23;;;;;;;7.29;100.00;96153.97;5020385;28;20511;-78
2022/10/21 02:43:47;;;;;;;11.00;9.87;;;;;;;7.19;100.00;96141.13;5016770;28;20427;-78
2022/10/21 02:46:14;;;;;;;10.17;8.10;;;;;;;7.35;100.00;96155.38;5018711;28;20415;-78
2022/10/21 02:48:44;;;;;;;10.43;8.43;;;;;;;7.18;100.00;96137.72;5019495;28;20529;-78
2022/10/21 02:51:11;;;;;;;12.27;9.43;;;;;;;7.29;100.00;96161.88;5019178;28;20451;-78
2022/10/21 02:53:38;;;;;;;10.13;9.23;;;;;;;7.28;100.00;96160.31;5018615;28;20554;-78
2022/10/21 02:56:05;;;;;;;11.67;9.17;;;;;;;7.35;100.00;96171.16;5018390;28;20435;-78
2022/10/21 02:58:32;;;;;;;9.03;8.13;;;;;;;7.15;100.00;96146.22;5018112;28;20438;-78
2022/10/21 03:00:59;;;;;;;13.70;8.63;;;;;;;7.27;100.00;96180.59;5018845;28;20577;-79
2022/10/21 03:03:25;;;;;;;12.77;8.00;;;;;;;6.90;100.00;96133.84;5017603;28;20427;-78
2022/10/21 03:05:52;;;;;;;11.80;8.93;;;;;;;7.20;100.00;96176.84;5018505;28;20423;-78
2022/10/21 03:08:19;;;;;;;12.50;10.73;;;;;;;7.16;100.00;96183.81;5001400;28;20946;-78
2022/10/21 03:10:48;;;;;;;13.60;10.47;;;;;;;6.98;100.00;96154.88;5000800;28;21059;-78
2022/10/21 03:13:19;;;;;;;12.70;10.40;;;;;;;7.07;100.00;96171.41;5017882;28;20454;-78
2022/10/21 03:15:47;;;;;;;12.70;11.30;;;;;;;6.99;100.00;96172.19;4998315;28;20440;-78
2022/10/21 03:18:14;;;;;;;12.17;10.70;;;;;;;7.15;100.00;96172.53;5016898;28;20477;-78
2022/10/21 03:20:41;;;;;;;12.83;11.53;;;;;;;7.06;100.00;96163.84;5016740;28;20466;-78
2022/10/21 03:23:07;;;;;;;12.80;10.97;;;;;;;7.03;100.00;96164.47;5018329;28;20894;-78
2022/10/21 03:25:34;;;;;;;13.60;11.40;;;;;;;6.75;100.00;96114.78;5001513;28;20443;-78
2022/10/21 03:28:01;;;;;;;12.17;10.60;;;;;;;6.89;100.00;96140.94;5017917;28;20510;-78
2022/10/21 03:30:28;;;;;;;16.57;10.63;;;;;;;6.85;100.00;96136.63;5018011;28;20455;-78
2022/10/21 03:32:54;;;;;;;13.10;10.13;;;;;;;6.81;100.00;96123.28;5004979;28;20443;-78
2022/10/21 03:35:21;;;;;;;13.33;12.10;;;;;;;6.42;100.00;96076.88;5017774;28;20439;-78
2022/10/21 03:37:48;;;;;;;13.87;11.63;;;;;;;6.91;100.00;96151.91;5018025;28;20450;-78
2022/10/21 03:40:14;;;;;;;15.43;12.07;;;;;;;7.10;100.00;96181.34;5001286;28;20466;-78
2022/10/21 03:42:41;;;;;;;12.97;11.43;;;;;;;6.87;100.00;96144.97;5016826;28;20526;-78
2022/10/21 03:45:08;;;;;;;15.90;11.27;;;;;;;6.79;100.00;96133.34;5016728;28;20534;-78
2022/10/21 03:47:35;;;;;;;12.10;10.67;;;;;;;6.85;100.00;96141.88;5017566;28;20438;-78
2022/10/21 03:50:02;;;;;;;14.50;11.70;;;;;;;6.95;100.00;96171.28;5000240;28;20908;-78
2022/10/21 03:52:33;;;;;;;16.33;11.77;;;;;;;6.74;100.00;96139.53;5017515;28;20435;-78
2022/10/21 03:54:59;;;;;;;14.73;13.23;;;;;;;6.41;100.00;96085.81;5016527;28;20443;-78
2022/10/21 03:57:26;;;;;;;15.33;11.83;;;;;;;6.34;100.00;96067.13;5017432;28;20437;-78
2022/10/21 03:59:52;;;;;;;13.90;12.50;;;;;;;6.26;100.00;96059.97;5016333;28;20489;-78
2022/10/21 04:02:19;;;;;;;14.37;11.37;;;;;;;6.63;100.00;96126.97;5015960;28;20427;-78
2022/10/21 04:04:46;;;;;;;12.63;11.43;;;;;;;6.77;100.00;96138.91;5016505;28;20434;-78
2022/10/21 04:07:12;;;;;;;12.47;11.27;;;;;;;6.68;100.00;96118.97;5017779;28;20427;-78
2022/10/21 04:09:39;;;;;;;18.93;12.93;;;;;;;6.45;100.00;96087.53;5017443;28;20463;-78
2022/10/21 04:12:05;;;;;;;14.53;11.33;;;;;;;6.18;100.00;96048.38;4999709;28;20530;-78
2022/10/21 04:14:32;;;;;;;15.17;11.80;;;;;;;6.32;100.00;96067.41;5016057;28;20984;-78
2022/10/21 04:16:59;;;;;;;12.87;11.57;;;;;;;6.66;100.00;96105.34;4999505;28;20457;-78
2022/10/21 04:19:32;;;;;;;13.00;11.10;;;;;;;6.87;100.00;96122.09;5000575;28;20542;-78
2022/10/21 04:21:59;;;;;;;13.13;11.73;;;;;;;6.58;100.00;96075.38;5016235;28;20450;-78
2022/10/21 04:24:26;;;;;;;15.70;12.53;;;;;;;6.19;100.00;96021.84;4999462;28;20958;-78
2022/10/21 04:26:52;;;;;;;16.30;11.83;;;;;;;6.85;100.00;96112.97;5003922;28;20435;-78
2022/10/21 04:29:19;;;;;;;14.70;11.63;;;;;;;6.58;100.00;96071.97;5022573;28;20443;-78
2022/10/21 04:31:48;;;;;;;14.33;12.17;;;;;;;6.80;100.00;96093.63;5022356;28;20438;-78
2022/10/21 04:34:15;;;;;;;16.13;11.30;;;;;;;6.83;100.00;96092.25;5022532;28;20434;-78
2022/10/21 04:36:42;;;;;;;15.93;11.60;;;;;;;6.85;100.00;96091.94;5004646;28;20947;-78
2022/10/21 04:39:08;;;;;;;16.60;12.77;;;;;;;6.50;100.00;96041.97;5020861;28;20479;-78
2022/10/21 04:41:35;;;;;;;13.33;11.93;;;;;;;6.79;100.00;96075.53;5018876;28;20469;-78
2022/10/21 04:44:02;;;;;;;14.73;12.37;;;;;;;6.91;100.00;96086.22;5001266;28;20443;-78
2022/10/21 04:46:29;;;;;;;11.67;10.40;;;;;;;6.72;100.00;96072.59;4993195;28;20448;-78
2022/10/21 04:48:55;;;;;;;14.00;11.67;;;;;;;6.59;100.00;96055.13;5016852;28;20880;-79
2022/10/21 04:51:22;;;;;;;11.53;10.33;;;;;;;6.84;100.00;96082.50;5016569;28;20451;-78
2022/10/21 04:53:49;;;;;;;17.73;10.90;;;;;;;6.79;100.00;96086.03;5000208;28;20775;-78
2022/10/21 04:56:15;;;;;;;12.20;10.00;;;;;;;6.61;100.00;96039.81;5017429;28;20481;-78
2022/10/21 04:58:42;;;;;;;12.73;10.83;;;;;;;6.50;100.00;96036.72;5016801;28;20884;-78
2022/10/21 05:01:08;;;;;;;12.53;10.90;;;;;;;6.32;100.00;95993.91;5017173;28;20471;-79
2022/10/21 05:03:35;;;;;;;11.87;10.40;;;;;;;6.37;100.00;96006.88;5000843;28;20522;-79
2022/10/21 05:06:02;;;;;;;13.30;11.13;;;;;;;6.63;100.00;96046.31;5016322;28;20935;-78
2022/10/21 05:08:29;;;;;;;12.27;11.03;;;;;;;6.60;100.00;96039.06;5015897;28;20525;-78
2022/10/21 05:11:00;;;;;;;15.80;11.77;;;;;;;6.26;100.00;95991.72;5015947;28;20455;-78
2022/10/21 05:13:30;;;;;;;17.80;14.40;;;;;;;6.62;100.00;96041.38;5015331;28;20458;-79
2022/10/21 05:15:58;;;;;;;17.87;12.93;;;;;;;6.04;100.00;95955.88;5015105;28;20455;-78
2022/10/21 05:18:25;;;;;;;15.70;13.30;;;;;;;6.65;100.00;96046.78;4998891;28;20475;-78
2022/10/21 05:20:53;;;;;;;14.80;12.77;;;;;;;6.17;100.00;95963.63;5015047;28;20502;-78
2022/10/21 05:23:21;;;;;;;13.40;11.30;;;;;;;6.67;100.00;96025.44;5017236;28;20972;-78
2022/10/21 05:25:50;;;;;;;13.57;12.00;;;;;;;6.50;100.00;95990.22;5016062;28;20459;-78
2022/10/21 05:28:17;;;;;;;13.07;11.87;;;;;;;6.62;100.00;95991.47;5016902;28;20458;-78
2022/10/21 05:30:44;;;;;;;17.00;11.50;;;;;;;6.77;100.00;96006.75;5025615;28;20447;-78
2022/10/21 05:33:11;;;;;;;12.70;11.50;;;;;;;6.62;100.00;95981.72;5017985;28;20462;-78
2022/10/21 05:35:38;;;;;;;23.80;12.10;;;;;;;6.71;100.00;95993.03;4999872;28;20482;-78
2022/10/21 05:38:05;;;;;;;13.97;12.57;;;;;;;6.96;100.00;96023.00;4996723;28;20455;-78
2022/10/21 05:40:32;;;;;;;17.70;12.27;;;;;;;6.97;100.00;96018.53;5008356;28;20459;-78
2022/10/21 05:42:59;;;;;;;17.90;12.53;;;;;;;6.55;100.00;95965.69;5015678;28;20534;-78
2022/10/21 05:45:25;;;;;;;15.37;11.00;;;;;;;6.77;100.00;95994.41;5015455;28;20445;-78
2022/10/21 05:47:52;;;;;;;14.10;11.70;;;;;;;6.75;100.00;95980.81;5016065;28;20431;-78
2022/10/21 05:50:19;;;;;;;15.00;13.40;;;;;;;7.01;100.00;96017.59;5014549;28;20834;-78
2022/10/21 05:52:45;;;;;;;17.13;12.70;;;;;;;6.63;100.00;95950.97;5013317;28;20942;-78
2022/10/21 05:55:12;;;;;;;17.60;14.10;;;;;;;6.70;100.00;95964.44;5012885;28;20450;-78
2022/10/21 05:57:39;;;;;;;22.83;15.97;;;;;;;6.75;100.00;95980.81;5013977;28;20446;-78
2022/10/21 06:00:06;;;;;;;18.73;12.63;;;;;;;7.15;100.00;96040.31;5013182;28;20482;-78
2022/10/21 06:02:34;;;;;;;17.70;13.30;;;;;;;7.04;100.00;96024.06;5012914;28;20454;-78
2022/10/21 06:05:01;;;;;;;14.40;13.00;;;;;;;7.24;100.00;96039.22;5012982;28;20459;-78
2022/10/21 06:07:28;;;;;;;13.63;12.13;;;;;;;7.08;100.00;96004.75;5029060;28;20953;-78
2022/10/21 06:09:55;;;;;;;13.13;11.57;;;;;;;7.34;100.00;96051.25;5014859;28;20466;-78
2022/10/21 06:12:21;;;;;;;13.13;9.93;;;;;;;7.24;100.00;96036.59;5013812;28;20439;-78
2022/10/21 06:14:48;;;;;;;12.30;10.90;;;;;;;7.14;100.00;96029.03;5012875;28;20970;-78
2022/10/21 06:17:15;;;;;;;12.20;10.30;;;;;;;7.36;100.00;96070.91;5014304;28;20981;-80
2022/10/21 06:19:41;;;;;;;15.67;11.97;;;;;;;7.02;100.00;96013.09;5016441;28;20467;-79
2022/10/21 06:22:14;;;;;;;13.73;12.30;;;;;;;7.00;100.00;96002.13;5016952;28;20530;-79
2022/10/21 06:24:41;;;;;;;23.00;16.30;;;;;;;6.82;100.00;95972.47;5015779;28;20439;-79
2022/10/21 06:27:08;;;;;;;19.00;15.53;;;;;;;7.26;100.00;96037.06;4994542;28;20435;-79
2022/10/21 06:29:34;;;;;;;13.10;11.70;;;;;;;7.28;100.00;96034.88;4997705;28;21131;-79
2022/10/21 06:32:01;;;;;;;15.83;14.20;;;;;;;6.71;100.00;95945.75;5014387;28;20439;-79
2022/10/21 06:34:28;;;;;;;14.67;13.23;;;;;;;6.95;100.00;95984.69;5014608;28;20538;-79
2022/10/21 06:36:54;;;;;;;17.90;13.07;;;;;;;7.01;100.00;95986.03;5016807;28;20441;-79
2022/10/21 06:39:21;;;;;;;16.13;12.20;;;;;;;7.37;100.00;96021.72;5015738;28;20432;-79
2022/10/21 06:41:47;;;;;;;15.03;12.67;;;;;;;7.52;100.00;96023.84;5015845;28;20526;-79
2022/10/21 06:44:31;;;;;;;13.90;11.87;;;;;;;7.48;100.00;96033.47;5013908;28;21013;-80
2022/10/21 06:46:57;;;;;;;15.03;13.40;;;;;;;7.34;100.00;96017.06;5030112;28;20443;-80
2022/10/21 06:49:24;;;;;;;13.83;12.40;;;;;;;7.57;100.00;96042.09;5014063;28;20485;-80
2022/10/21 06:51:51;;;;;;;17.00;11.23;;;;;;;6.80;100.00;95937.84;5013159;28;20423;-80
2022/10/21 06:54:18;;;;;;;13.57;11.50;;;;;;;7.10;100.00;95952.66;5000392;28;20959;-80
2022/10/21 06:56:44;;;;;;;13.37;10.83;;;;;;;7.75;100.00;96044.69;5013148;28;20527;-80
2022/10/21 06:59:11;;;;;;;13.90;11.20;;;;;;;7.52;100.00;96031.75;4996894;28;20458;-80
2022/10/21 07:01:37;;;;;;;16.13;12.63;;;;;;;7.80;100.00;96061.06;5012619;28;20474;-80
2022/10/21 07:04:24;;;;;;;16.60;13.67;;;;;;;7.39;100.00;95993.25;5012735;28;20458;-80
2022/10/21 07:06:51;;;;;;;25.97;16.57;;;;;;;7.80;100.00;96060.31;5013274;28;20468;-80
2022/10/21 07:09:17;;;;;;;38.03;21.60;;;;;;;7.51;100.00;96016.28;4995533;28;20459;-80
2022/10/21 07:11:44;;;;;;;35.67;23.53;;;;;;;7.31;100.00;95986.16;5002307;28;20451;-80
2022/10/21 07:14:11;;;;;;;25.50;17.87;;;;;;;7.52;100.00;96031.75;4997120;28;20439;-80
2022/10/21 07:16:38;;;;;;;16.60;14.40;;;;;;;7.53;100.00;96004.34;5014272;28;20426;-80
2022/10/21 07:19:05;;;;;;;15.57;12.30;;;;;;;7.57;100.00;96010.53;5013888;28;20455;-80
2022/10/21 07:21:32;;;;;;;13.67;12.30;;;;;;;7.96;100.00;96046.31;5012902;28;20991;-80
2022/10/21 07:23:59;;;;;;;16.93;12.63;;;;;;;7.38;100.00;95968.81;4997246;28;20439;-80
2022/10/21 07:26:30;;;;;;;13.23;11.83;;;;;;;8.12;100.00;96077.38;5000555;28;20439;-80
2022/10/21 07:28:59;;;;;;;13.30;12.00;;;;;;;8.02;100.00;96039.03;5013482;28;20453;-80
2022/10/21 07:31:27;;;;;;;15.40;12.73;;;;;;;8.29;100.00;96067.56;5016984;28;20483;-80
2022/10/21 07:33:54;;;;;;;13.87;11.80;;;;;;;7.99;100.00;96031.72;5018406;28;20427;-80
2022/10/21 07:36:25;;;;;;;18.97;12.13;;;;;;;8.16;100.00;96075.66;5018270;28;20919;-80
2022/10/21 07:38:54;;;;;;;17.73;12.80;;;;;;;8.32;100.00;96079.31;5020542;28;20509;-81
2022/10/21 07:41:33;;;;;;;16.53;12.20;;;;;;;8.13;100.00;96040.19;5017367;28;20574;-81
2022/10/21 07:44:00;;;;;;;11.70;10.17;;;;;;;8.04;100.00;96039.47;5000448;28;20879;-80
2022/10/21 07:46:27;;;;;;;12.80;11.60;;;;;;;8.15;100.00;96039.91;5001185;28;20892;-80
2022/10/21 07:48:54;;;;;;;14.10;10.83;;;;;;;7.81;100.00;95983.66;5005442;28;20443;-80
2022/10/21 07:51:23;;;;;;;13.27;10.43;;;;;;;8.56;100.00;96071.63;5017496;28;20820;-80
2022/10/21 07:53:57;;;;;;;15.30;13.33;;;;;;;8.53;100.00;96066.97;5000003;28;20558;-80
2022/10/21 07:56:29;;;;;;;11.30;10.23;;;;;;;8.58;100.00;96073.94;5015553;28;20433;-80
2022/10/21 07:58:56;;;;;;;11.97;10.57;;;;;;;8.21;100.00;96010.41;5016455;28;20949;-80
2022/10/21 08:01:23;;;;;;;15.40;10.37;;;;;;;8.82;100.00;96079.38;5000383;28;20489;-80
2022/10/21 08:03:52;;;;;;;11.87;10.67;;;;;;;8.59;100.00;96055.16;4995926;28;20936;-80
2022/10/21 08:06:18;;;;;;;14.33;11.43;;;;;;;8.61;100.00;96065.38;5006054;28;20439;-80
2022/10/21 08:08:45;;;;;;;13.07;11.00;;;;;;;8.62;100.00;96074.84;5015439;28;20542;-80
2022/10/21 08:11:42;;;;;;;14.50;12.40;;;;;;;8.59;100.00;96070.22;5006775;28;21036;-80
2022/10/21 08:14:09;;;;;;;12.33;11.00;;;;;;;8.12;100.00;96001.78;4975935;28;21019;-80
2022/10/21 08:16:36;;;;;;;14.40;11.20;;;;;;;8.63;100.00;96065.06;5016536;28;20447;-80
2022/10/21 08:19:04;;;;;;;13.00;11.27;;;;;;;8.62;100.00;96058.25;5027116;28;20947;-81
2022/10/21 08:21:30;;;;;;;16.47;10.13;;;;;;;8.38;100.00;96008.81;5015639;28;21002;-80
2022/10/21 08:23:59;;;;;;;12.90;10.40;;;;;;;8.45;100.00;96036.19;4999262;28;20439;-80
2022/10/21 08:26:26;;;;;;;12.13;10.83;;;;;;;8.18;100.00;95981.31;5015439;28;20435;-80
2022/10/21 08:28:53;;;;;;;12.07;10.87;;;;;;;8.44;100.00;96013.56;4998790;28;20447;-80
2022/10/21 08:31:21;;;;;;;13.70;11.33;;;;;;;8.20;100.00;95968.59;5000099;28;20464;-80
2022/10/21 08:33:48;;;;;;;12.90;11.50;;;;;;;8.67;100.00;96005.34;4998027;28;20443;-79
2022/10/21 08:36:19;;;;;;;17.97;11.97;;;;;;;8.87;100.00;96023.03;4983951;28;20461;-79
2022/10/21 08:38:46;;;;;;;12.93;10.60;;;;;;;8.82;100.00;95999.53;5003263;28;20421;-80
2022/10/21 08:41:28;;;;;;;13.63;10.80;;;;;;;9.16;100.00;96024.81;5011309;28;20455;-79
2022/10/21 08:44:09;;;;;;;11.77;10.60;;;;;;;9.39;100.00;96027.88;5028191;28;20454;-78
2022/10/21 08:46:52;;;;;;;11.70;10.57;;;;;;;9.13;100.00;96009.66;5001359;28;20843;-79
2022/10/21 08:49:26;;;;;;;12.07;9.83;;;;;;;9.13;100.00;96004.38;5013634;28;20447;-80
2022/10/21 08:52:02;;;;;;;12.87;10.07;;;;;;;9.17;100.00;96015.81;4998654;28;20962;-80
2022/10/21 08:55:12;;;;;;;13.13;11.83;;;;;;;8.97;100.00;96013.97;5015004;28;20446;-80
2022/10/21 08:57:39;;;;;;;12.80;11.50;;;;;;;9.26;100.00;96044.75;5011687;28;20783;-80
2022/10/21 09:00:19;;;;;;;12.40;10.30;;;;;;;8.89;100.00;95991.84;5016131;28;20459;-80
2022/10/21 09:03:01;;;;;;;10.50;9.50;;;;;;;9.48;100.00;96070.75;5003154;28;20558;-80
2022/10/21 09:05:51;;;;;;;14.73;10.23;;;;;;;9.66;100.00;96069.50;5015733;28;20862;-80
2022/10/21 09:08:42;;;;;;;13.00;10.30;;;;;;;10.02;100.00;96076.75;5015936;28;20442;-80
2022/10/21 09:11:18;;;;;;;10.83;9.20;;;;;;;10.23;100.00;96073.25;4998697;28;20872;-80
2022/10/21 09:14:20;;;;;;;12.00;9.87;;;;;;;10.28;100.00;96081.75;5000863;28;20482;-80
2022/10/21 09:17:24;;;;;;;12.53;9.50;;;;;;;10.25;100.00;96078.97;4967208;28;20812;-80
2022/10/21 09:20:01;;;;;;;11.00;9.90;;;;;;;10.22;100.00;96088.34;5018227;28;20450;-80
2022/10/21 09:22:53;;;;;;;11.60;10.40;;;;;;;10.14;100.00;96086.53;5014459;28;20471;-80
2022/10/21 09:25:37;;;;;;;16.47;11.00;;;;;;;10.13;100.00;96094.78;5016421;28;20503;-80
2022/10/21 09:28:13;;;;;;;10.83;9.73;;;;;;;10.11;100.00;96083.78;5000482;28;20550;-80
2022/10/21 09:30:41;;;;;;;10.50;9.47;;;;;;;10.20;100.00;96079.94;5014040;28;20493;-81
2022/10/21 09:33:14;;;;;;;10.40;9.30;;;;;;;10.23;100.00;96075.91;5002657;28;20469;-80
2022/10/21 09:35:53;;;;;;;9.83;8.93;;;;;;;9.99;100.00;96068.69;5014634;28;20547;-80
2022/10/21 09:38:28;;;;;;;17.50;9.20;;;;;;;10.01;100.00;96067.25;5014569;28;20452;-80
2022/10/21 09:41:02;;;;;;;11.43;10.23;;;;;;;10.02;100.00;96068.06;4994580;28;20464;-80
2022/10/21 09:43:29;;;;;;;14.17;11.17;;;;;;;9.96;100.00;96064.84;5014361;28;20455;-80
2022/10/21 09:45:56;;;;;;;12.10;10.70;;;;;;;9.94;100.00;96061.75;5015831;28;20519;-80
2022/10/21 09:48:46;;;;;;;14.90;11.73;;;;;;;10.02;100.00;96055.63;5013759;28;20431;-80
2022/10/21 09:51:36;;;;;;;12.43;11.20;;;;;;;9.72;100.00;96012.75;5003222;28;20529;-80
2022/10/21 09:54:23;;;;;;;11.17;10.00;;;;;;;9.90;100.00;96050.31;5013205;28;20974;-80
2022/10/21 09:57:03;;;;;;;13.00;11.70;;;;;;;9.85;100.00;96045.22;5015636;28;20534;-80
2022/10/21 09:59:31;;;;;;;13.43;11.43;;;;;;;9.97;100.00;96047.13;4998452;28;20463;-80
2022/10/21 10:02:14;;;;;;;10.57;9.23;;;;;;;10.03;100.00;96046.59;5015352;28;20957;-80
2022/10/21 10:04:41;;;;;;;11.47;10.30;;;;;;;9.86;100.00;96019.59;5015909;28;20958;-79
2022/10/21 10:07:20;;;;;;;11.20;10.07;;;;;;;10.28;100.00;96057.19;5014596;28;20473;-79
2022/10/21 10:09:47;;;;;;;12.00;10.87;;;;;;;10.24;100.00;96043.88;5000386;28;21055;-79
2022/10/21 10:12:20;;;;;;;11.43;10.33;;;;;;;10.12;100.00;96027.22;5015578;28;20979;-79
2022/10/21 10:14:47;;;;;;;20.77;10.53;;;;;;;10.31;100.00;96053.91;5017147;28;20495;-79
2022/10/21 10:17:22;;;;;;;11.73;10.50;;;;;;;10.41;100.00;96061.38;5022212;28;20438;-79
2022/10/21 10:20:04;;;;;;;12.70;10.53;;;;;;;10.23;100.00;96058.19;5022343;28;20533;-79
2022/10/21 10:22:36;;;;;;;12.47;11.27;;;;;;;10.22;100.00;96055.88;5015982;28;20462;-80
2022/10/21 10:25:13;;;;;;;11.20;10.20;;;;;;;9.87;100.00;96021.91;4999653;28;20439;-79
2022/10/21 10:27:52;;;;;;;12.43;11.13;;;;;;;10.17;100.00;96062.13;4999756;28;20434;-80
2022/10/21 10:30:22;;;;;;;12.00;10.83;;;;;;;9.84;100.00;96038.41;5016791;28;20450;-80
2022/10/21 10:32:51;;;;;;;12.13;10.73;;;;;;;9.46;100.00;95954.97;5015517;28;20424;-80
2022/10/21 10:35:24;;;;;;;14.53;11.67;;;;;;;10.09;100.00;96041.84;5015573;28;20430;-80
2022/10/21 10:37:52;;;;;;;11.90;10.70;;;;;;;10.00;100.00;96041.94;4998174;28;20455;-80
2022/10/21 10:40:23;;;;;;;12.20;11.03;;;;;;;9.99;100.00;96018.50;4998984;28;20557;-79
2022/10/21 10:42:59;;;;;;;14.03;11.13;;;;;;;10.45;100.00;96062.25;5011120;28;20995;-80
2022/10/21 10:45:26;;;;;;;12.50;11.20;;;;;;;9.98;100.00;95998.47;4979423;28;20443;-80
2022/10/21 10:47:57;;;;;;;13.03;10.33;;;;;;;10.23;100.00;96029.13;5015071;28;20437;-80
2022/10/21 10:50:36;;;;;;;11.40;10.10;;;;;;;10.61;100.00;96071.06;5016082;28;20457;-80
2022/10/21 10:53:22;;;;;;;10.63;9.63;;;;;;;10.62;100.00;96080.53;5014361;28;20470;-79
2022/10/21 10:56:21;;;;;;;12.53;11.27;;;;;;;10.56;100.00;96089.78;5014880;28;20447;-80
2022/10/21 10:59:16;;;;;;;12.80;10.20;;;;;;;10.52;100.00;96080.97;5016304;28;20420;-79
2022/10/21 11:01:52;;;;;;;12.73;10.30;;;;;;;10.54;100.00;96075.34;4999276;28;20459;-80
2022/10/21 11:04:31;;;;;;;13.37;10.93;;;;;;;10.59;100.00;96072.50;4998750;28;20439;-80
2022/10/21 11:07:11;;;;;;;12.00;9.93;;;;;;;10.56;100.00;96081.09;5017116;28;20470;-80
2022/10/21 11:09:38;;;;;;;13.30;11.30;;;;;;;10.73;100.00;96075.56;5018513;28;20513;-80
2022/10/21 11:12:19;;;;;;;13.00;11.20;;;;;;;10.77;100.00;96062.44;5017719;28;20919;-80
2022/10/21 11:14:50;;;;;;;12.63;10.40;;;;;;;10.62;100.00;96040.88;4989015;28;21000;-80
2022/10/21 11:17:20;;;;;;;14.10;11.27;;;;;;;10.18;100.00;95987.03;5017887;28;20764;-80
2022/10/21 11:20:05;;;;;;;15.70;12.13;;;;;;;10.35;100.00;95994.00;4987810;28;20927;-80
2022/10/21 11:22:37;;;;;;;14.17;11.10;;;;;;;10.56;100.00;95996.50;5017966;28;20458;-80
2022/10/21 11:25:22;;;;;;;15.10;12.23;;;;;;;10.51;100.00;95978.97;5017025;28;20419;-80
2022/10/21 11:28:17;;;;;;;12.77;11.50;;;;;;;10.59;100.00;96001.88;5016746;28;20459;-80
2022/10/21 11:31:12;;;;;;;15.90;13.47;;;;;;;10.55;100.00;95992.28;5016268;28;20463;-81
2022/10/21 11:33:54;;;;;;;13.63;11.90;;;;;;;10.58;100.00;95970.50;5003790;28;20424;-81
2022/10/21 11:36:36;;;;;;;17.87;11.37;;;;;;;10.55;100.00;95974.59;5015649;28;20429;-80
2022/10/21 11:39:32;;;;;;;12.83;11.30;;;;;;;10.86;100.00;95994.31;5015620;28;20435;-81
2022/10/21 11:42:01;;;;;;;15.03;12.03;;;;;;;10.83;100.00;95995.78;4993499;28;21057;-81